createdAt,value
2022-09-15T06:16:52.699Z,30.80
2022-09-15T06:19:20.944Z,25.80
2022-09-15T06:21:49.027Z,25.23
2022-09-15T06:24:17.323Z,22.03
2022-09-15T06:26:45.394Z,27.23
2022-09-15T06:29:13.847Z,25.83
2022-09-15T06:31:41.941Z,23.20
2022-09-15T06:34:11.499Z,21.33
2022-09-15T06:36:39.591Z,19.93
2022-09-15T06:39:08.479Z,22.17
2022-09-15T06:42:00.794Z,19.03
2022-09-15T06:44:24.721Z,20.83
2022-09-15T06:46:52.724Z,12.20
2022-09-15T06:49:22.847Z,16.63
2022-09-15T06:51:50.954Z,13.17
2022-09-15T06:54:19.085Z,16.50
2022-09-15T06:56:47.477Z,13.53
2022-09-15T06:59:16.994Z,12.47
2022-09-15T07:01:44.979Z,14.27
2022-09-15T07:04:12.939Z,16.53
2022-09-15T07:06:42.290Z,12.27
2022-09-15T07:09:11.853Z,12.13
2022-09-15T07:11:39.888Z,13.93
2022-09-15T07:14:08.052Z,18.83
2022-09-15T07:16:36.173Z,10.17
2022-09-15T07:19:05.882Z,11.00
2022-09-15T07:21:34.860Z,7.47
2022-09-15T07:24:07.372Z,13.53
2022-09-15T07:26:36.020Z,10.97
2022-09-15T07:29:06.259Z,8.53
2022-09-15T07:31:36.997Z,10.03
2022-09-15T07:34:05.874Z,7.97
2022-09-15T07:36:33.888Z,5.50
2022-09-15T07:39:02.039Z,8.43
2022-09-15T07:41:32.457Z,4.93
2022-09-15T07:44:01.540Z,8.50
2022-09-15T07:46:32.302Z,9.37
2022-09-15T07:49:00.715Z,6.60
2022-09-15T07:51:28.736Z,8.23
2022-09-15T07:53:56.796Z,11.03
2022-09-15T07:56:24.912Z,13.70
2022-09-15T07:58:54.305Z,5.97
2022-09-15T08:01:23.214Z,5.40
2022-09-15T08:03:52.961Z,10.70
2022-09-15T08:06:23.952Z,7.13
2022-09-15T08:08:56.351Z,10.73
2022-09-15T08:11:28.355Z,4.97
2022-09-15T08:13:57.847Z,10.57
2022-09-15T08:16:26.343Z,13.10
2022-09-15T08:18:55.379Z,5.53
2022-09-15T08:21:24.069Z,8.60
2022-09-15T08:23:53.714Z,10.60
2022-09-15T08:26:21.755Z,5.43
2022-09-15T08:28:49.887Z,14.10
2022-09-15T08:31:19.610Z,5.43
2022-09-15T08:33:50.255Z,12.70
2022-09-15T08:36:18.506Z,8.73
2022-09-15T08:38:47.341Z,7.77
2022-09-15T08:41:19.443Z,9.87
2022-09-15T08:43:51.138Z,13.17
2022-09-15T08:46:25.692Z,7.73
2022-09-15T08:49:06.663Z,5.10
2022-09-15T08:51:42.233Z,8.23
2022-09-15T08:54:15.804Z,4.47
2022-09-15T08:56:44.702Z,4.37
2022-09-15T08:59:15.834Z,4.57
2022-09-15T09:01:56.927Z,6.17
2022-09-15T09:04:48.864Z,6.83
2022-09-15T09:07:31.765Z,4.63
2022-09-15T09:10:10.097Z,4.70
2022-09-15T09:12:52.456Z,3.20
2022-09-15T09:15:33.991Z,5.13
2022-09-15T09:18:15.585Z,5.80
2022-09-15T09:20:54.652Z,5.50
2022-09-15T09:23:28.183Z,4.80
2022-09-15T09:25:58.709Z,12.47
2022-09-15T09:28:32.170Z,3.10
2022-09-15T09:31:06.633Z,4.77
2022-09-15T09:33:47.540Z,5.60
2022-09-15T09:36:16.289Z,4.13
2022-09-15T09:38:46.967Z,10.93
2022-09-15T09:41:17.819Z,8.30
2022-09-15T09:43:48.709Z,6.47
2022-09-15T09:46:19.427Z,8.10
2022-09-15T09:48:53.650Z,9.23
2022-09-15T09:51:36.036Z,7.07
2022-09-15T09:54:16.200Z,6.77
2022-09-15T09:56:44.718Z,11.70
2022-09-15T09:59:34.676Z,3.17
2022-09-15T10:02:15.695Z,7.90
2022-09-15T10:04:46.547Z,7.00
2022-09-15T10:07:16.755Z,5.53
2022-09-15T10:09:54.457Z,6.10
2022-09-15T10:12:30.622Z,4.33
2022-09-15T10:15:01.447Z,9.53
2022-09-15T10:17:41.073Z,4.77
2022-09-15T10:20:25.880Z,9.77
2022-09-15T10:23:02.915Z,6.33
2022-09-15T10:25:57.572Z,5.50
2022-09-15T10:28:26.531Z,5.60
2022-09-15T10:31:04.979Z,8.90
2022-09-15T10:33:35.037Z,3.47
2022-09-15T10:36:08.307Z,5.97
2022-09-15T10:38:42.237Z,6.27
2022-09-15T10:41:26.242Z,12.03
2022-09-15T10:44:15.291Z,13.30
2022-09-15T10:46:51.109Z,8.97
2022-09-15T10:49:34.641Z,5.97
2022-09-15T10:52:14.471Z,5.93
2022-09-15T10:54:55.440Z,5.70
2022-09-15T10:57:39.141Z,7.90
2022-09-15T11:00:10.402Z,5.80
2022-09-15T11:03:12.114Z,7.50
2022-09-15T11:05:52.207Z,12.77
2022-09-15T11:08:52.489Z,7.50
2022-09-15T11:11:26.271Z,7.30
2022-09-15T11:14:07.789Z,7.63
2022-09-15T11:16:49.942Z,9.63
2022-09-15T11:19:33.473Z,5.90
2022-09-15T11:22:06.348Z,8.83
2022-09-15T11:24:43.068Z,5.37
2022-09-15T11:27:19.409Z,7.87
2022-09-15T11:30:02.783Z,7.60
2022-09-15T11:32:37.549Z,6.50
2022-09-15T11:35:33.575Z,4.93
2022-09-15T11:38:13.036Z,4.27
2022-09-15T11:40:47.206Z,7.13
2022-09-15T11:43:20.067Z,4.20
2022-09-15T11:45:53.154Z,3.77
2022-09-15T11:48:25.131Z,7.00
2022-09-15T11:50:59.511Z,3.93
2022-09-15T11:53:33.603Z,5.37
2022-09-15T11:56:14.223Z,4.20
2022-09-15T11:58:55.294Z,6.83
2022-09-15T12:01:26.175Z,5.33
2022-09-15T12:03:59.514Z,7.77
2022-09-15T12:06:33.553Z,3.70
2022-09-15T12:09:03.610Z,5.15
2022-09-15T12:11:35.648Z,4.03
2022-09-15T12:14:05.212Z,5.20
2022-09-15T12:16:35.385Z,2.93
2022-09-15T12:19:10.156Z,6.93
2022-09-15T12:21:43.248Z,6.60
2022-09-15T12:24:17.570Z,4.60
2022-09-15T12:26:47.604Z,3.93
2022-09-15T12:29:41.209Z,4.30
2022-09-15T12:32:22.227Z,5.27
2022-09-15T12:35:13.361Z,9.43
2022-09-15T12:37:45.187Z,6.50
2022-09-15T12:40:35.894Z,7.07
2022-09-15T12:43:19.758Z,3.27
2022-09-15T12:45:56.745Z,5.87
2022-09-15T12:48:28.249Z,5.73
2022-09-15T12:50:59.460Z,5.33
2022-09-15T12:53:30.149Z,4.67
2022-09-15T12:56:00.723Z,6.23
2022-09-15T12:58:37.023Z,5.10
2022-09-15T13:01:33.204Z,8.97
2022-09-15T13:04:26.615Z,5.53
2022-09-15T13:07:32.023Z,5.60
2022-09-15T13:10:01.975Z,5.37
2022-09-15T13:12:36.724Z,8.07
2022-09-15T13:15:14.361Z,5.73
2022-09-15T13:17:44.531Z,3.87
2022-09-15T13:20:23.255Z,7.57
2022-09-15T13:22:56.369Z,5.60
2022-09-15T13:25:29.254Z,5.33
2022-09-15T13:28:00.816Z,5.03
2022-09-15T13:30:45.850Z,5.33
2022-09-15T13:39:51.143Z,4.80
2022-09-15T13:42:32.642Z,3.33
2022-09-15T13:45:26.226Z,6.27
2022-09-15T13:48:08.983Z,5.93
2022-09-15T13:50:40.293Z,8.55
2022-09-15T13:53:34.507Z,5.13
2022-09-15T13:56:07.898Z,3.83
2022-09-15T14:01:25.949Z,4.40
2022-09-15T14:03:58.176Z,5.47
2022-09-15T14:06:30.362Z,8.47
2022-09-15T14:09:02.165Z,4.43
2022-09-15T14:11:33.245Z,7.37
2022-09-15T14:14:01.492Z,6.50
2022-09-15T14:16:35.688Z,5.73
2022-09-15T14:19:33.325Z,5.55
2022-09-15T14:22:02.485Z,9.25
2022-09-15T14:24:32.573Z,5.80
2022-09-15T14:27:08.634Z,6.43
2022-09-15T14:29:41.297Z,8.40
2022-09-15T14:32:15.792Z,8.27
2022-09-15T14:37:21.880Z,7.35
2022-09-15T14:39:54.826Z,4.37
2022-09-15T14:42:29.619Z,8.33
2022-09-15T14:47:49.296Z,7.00
2022-09-15T14:50:20.601Z,9.07
2022-09-15T14:52:51.890Z,5.50
2022-09-15T14:55:25.766Z,9.57
2022-09-15T14:57:59.954Z,4.93
2022-09-15T15:00:31.189Z,6.90
2022-09-15T15:03:18.161Z,6.73
2022-09-15T15:05:58.121Z,5.03
2022-09-15T15:08:38.532Z,4.70
2022-09-15T15:11:10.821Z,4.27
2022-09-15T15:13:42.112Z,5.37
2022-09-15T15:16:16.270Z,4.83
2022-09-15T15:18:45.266Z,7.60
2022-09-15T15:24:18.277Z,7.87
2022-09-15T15:26:47.525Z,5.03
2022-09-15T15:29:43.079Z,5.43
2022-09-15T15:32:16.073Z,7.60
2022-09-15T15:34:51.591Z,7.53
2022-09-15T15:37:27.734Z,7.87
2022-09-15T15:39:58.376Z,7.13
2022-09-15T15:42:28.850Z,5.80
2022-09-15T15:45:05.833Z,7.13
2022-09-15T15:47:37.138Z,5.27
2022-09-15T15:50:13.752Z,7.50
2022-09-15T15:52:43.725Z,5.47
2022-09-15T15:55:17.344Z,8.30
2022-09-15T15:57:47.779Z,9.27
2022-09-15T16:00:22.297Z,8.47
2022-09-15T16:02:51.080Z,7.43
2022-09-15T16:05:22.240Z,5.33
2022-09-15T16:07:51.909Z,8.53
2022-09-15T16:10:24.035Z,7.70
2022-09-15T16:12:52.112Z,11.30
2022-09-15T16:15:22.211Z,7.17
2022-09-15T16:17:50.676Z,7.67
2022-09-15T16:20:19.743Z,7.00
2022-09-15T16:22:47.904Z,5.50
2022-09-15T16:25:18.819Z,8.07
2022-09-15T16:27:48.906Z,5.27
2022-09-15T16:30:17.088Z,9.63
2022-09-15T16:32:50.959Z,4.03
2022-09-15T16:35:35.228Z,8.23
2022-09-15T16:38:03.288Z,6.70
2022-09-15T16:40:31.365Z,9.83
2022-09-15T16:43:00.879Z,10.10
2022-09-15T16:45:36.526Z,6.73
2022-09-15T16:48:07.909Z,6.23
2022-09-15T16:50:37.826Z,8.57
2022-09-15T16:53:10.287Z,7.50
2022-09-15T16:55:41.237Z,6.97
2022-09-15T16:58:10.870Z,4.57
2022-09-15T17:00:39.633Z,4.90
2022-09-15T17:03:08.838Z,6.70
2022-09-15T17:05:39.177Z,6.90
2022-09-15T17:08:08.806Z,7.80
2022-09-15T17:10:37.071Z,8.83
2022-09-15T17:13:05.780Z,7.83
2022-09-15T17:15:38.405Z,4.40
2022-09-15T17:18:07.752Z,7.17
2022-09-15T17:20:39.102Z,9.30
2022-09-15T17:23:18.822Z,3.40
2022-09-15T17:25:52.083Z,10.20
2022-09-15T17:28:22.650Z,3.60
2022-09-15T17:30:54.639Z,7.03
2022-09-15T17:33:22.815Z,10.47
2022-09-15T17:35:51.326Z,8.17
2022-09-15T17:38:20.484Z,9.17
2022-09-15T17:40:49.683Z,6.77
2022-09-15T17:43:19.488Z,5.83
2022-09-15T17:45:48.284Z,6.50
2022-09-15T17:48:18.051Z,7.17
2022-09-15T17:50:46.647Z,7.70
2022-09-15T17:53:16.867Z,9.40
2022-09-15T17:55:45.367Z,8.17
2022-09-15T17:58:13.411Z,6.00
2022-09-15T18:00:43.161Z,4.57
2022-09-15T18:03:23.835Z,10.60
2022-09-15T18:05:53.351Z,6.27
2022-09-15T18:08:21.791Z,8.33
2022-09-15T18:10:50.036Z,6.83
2022-09-15T18:13:22.453Z,12.60
2022-09-15T18:15:50.573Z,7.57
2022-09-15T18:18:22.181Z,10.07
2022-09-15T18:20:53.088Z,9.17
2022-09-15T18:23:22.639Z,7.27
2022-09-15T18:25:51.713Z,4.77
2022-09-15T18:28:20.663Z,7.70
2022-09-15T18:30:50.040Z,7.70
2022-09-15T18:33:19.884Z,7.20
2022-09-15T18:35:51.106Z,6.40
2022-09-15T18:38:19.398Z,7.10
2022-09-15T18:40:49.144Z,6.83
2022-09-15T18:43:17.432Z,6.23
2022-09-15T18:45:45.744Z,8.17
2022-09-15T18:48:14.091Z,28.33
2022-09-15T18:50:44.701Z,7.87
2022-09-15T18:53:14.429Z,6.90
2022-09-15T18:55:43.695Z,6.60
2022-09-15T18:58:12.809Z,6.63
2022-09-15T19:00:41.103Z,6.50
2022-09-15T19:03:10.377Z,3.73
2022-09-15T19:05:39.113Z,8.83
2022-09-15T19:08:08.436Z,4.77
2022-09-15T19:10:41.543Z,3.83
2022-09-15T19:13:11.300Z,5.63
2022-09-15T19:15:40.371Z,7.60
2022-09-15T19:18:08.480Z,6.77
2022-09-15T19:20:36.543Z,7.10
2022-09-15T19:23:04.635Z,8.57
2022-09-15T19:25:33.222Z,8.17
2022-09-15T19:28:03.096Z,8.87
2022-09-15T19:30:31.246Z,3.83
